createdAt,value
2019-02-03T00:01:28.887Z,3.25
2019-02-03T00:03:59.461Z,3.26
2019-02-03T00:06:29.993Z,3.27
2019-02-03T00:09:00.802Z,3.27
2019-02-03T00:11:31.396Z,3.26
2019-02-03T00:14:02.003Z,3.26
2019-02-03T00:16:32.535Z,3.21
2019-02-03T00:19:03.482Z,3.22
2019-02-03T00:21:34.260Z,3.26
2019-02-03T00:24:04.945Z,3.24
2019-02-03T00:26:35.499Z,3.26
2019-02-03T00:29:06.318Z,3.27
2019-02-03T00:31:36.826Z,3.28
2019-02-03T00:34:07.572Z,3.27
2019-02-03T00:36:38.150Z,3.27
2019-02-03T00:39:10.834Z,3.24
2019-02-03T00:41:41.637Z,3.22
2019-02-03T00:44:12.279Z,3.21
2019-02-03T00:46:42.860Z,3.23
2019-02-03T00:49:13.428Z,3.16
2019-02-03T00:51:43.993Z,3.13
2019-02-03T00:54:14.552Z,3.07
2019-02-03T00:56:45.090Z,3.07
2019-02-03T00:59:15.681Z,2.96
2019-02-03T01:01:46.347Z,2.94
2019-02-03T01:04:16.920Z,2.95
2019-02-03T01:06:48.263Z,2.90
2019-02-03T01:09:18.832Z,2.87
2019-02-03T01:11:49.407Z,2.88
2019-02-03T01:14:27.327Z,2.86
2019-02-03T01:16:57.896Z,2.87
2019-02-03T01:19:29.137Z,2.79
2019-02-03T01:21:59.996Z,2.81
2019-02-03T01:24:30.527Z,2.85
2019-02-03T01:27:01.151Z,2.86
2019-02-03T01:29:31.703Z,2.79
2019-02-03T01:32:02.258Z,2.84
2019-02-03T01:34:33.560Z,2.83
2019-02-03T01:37:04.100Z,2.84
2019-02-03T01:39:34.698Z,2.87
2019-02-03T01:42:05.255Z,2.84
2019-02-03T01:44:35.830Z,2.85
2019-02-03T01:47:06.421Z,2.79
2019-02-03T01:49:37.629Z,2.74
2019-02-03T01:52:08.225Z,2.72
2019-02-03T01:54:38.751Z,2.70
2019-02-03T01:57:09.249Z,2.71
2019-02-03T01:59:39.765Z,2.74
2019-02-03T02:02:10.345Z,2.70
2019-02-03T02:04:41.594Z,2.68
2019-02-03T02:07:12.208Z,2.64
2019-02-03T02:09:42.763Z,2.64
2019-02-03T02:12:13.306Z,2.65
2019-02-03T02:14:44.591Z,2.66
2019-02-03T02:17:15.233Z,2.66
2019-02-03T02:19:46.439Z,2.69
2019-02-03T02:22:17.125Z,2.69
2019-02-03T02:24:47.663Z,2.66
2019-02-03T02:27:18.245Z,2.64
2019-02-03T02:29:48.762Z,2.63
2019-02-03T02:32:20.081Z,2.63
2019-02-03T02:34:50.643Z,2.64
2019-02-03T02:37:21.209Z,2.66
2019-02-03T02:39:51.794Z,2.60
2019-02-03T02:42:23.068Z,2.64
2019-02-03T02:44:53.773Z,2.63
2019-02-03T02:47:24.575Z,2.65
2019-02-03T02:49:55.109Z,2.68
2019-02-03T02:52:25.651Z,2.65
2019-02-03T02:54:56.200Z,2.63
2019-02-03T02:57:27.451Z,2.67
2019-02-03T02:59:58.231Z,2.62
2019-02-03T03:02:28.809Z,2.62
2019-02-03T03:05:00.333Z,2.57
2019-02-03T03:07:31.272Z,2.53
2019-02-03T03:10:02.336Z,2.53
2019-02-03T03:12:33.457Z,2.58
2019-02-03T03:15:05.036Z,2.57
2019-02-03T03:17:35.608Z,2.56
2019-02-03T03:20:08.017Z,2.51
2019-02-03T03:22:38.584Z,2.54
2019-02-03T03:25:12.521Z,2.53
2019-02-03T03:27:43.092Z,2.53
2019-02-03T03:30:37.150Z,2.58
2019-02-03T03:33:07.761Z,2.58
2019-02-03T03:35:38.363Z,2.52
2019-02-03T03:38:08.997Z,2.54
2019-02-03T03:40:39.551Z,2.48
2019-02-03T03:43:10.113Z,2.52
2019-02-03T03:45:40.625Z,2.54
2019-02-03T03:48:12.089Z,2.50
2019-02-03T03:50:42.665Z,2.48
2019-02-03T03:53:13.196Z,2.50
2019-02-03T03:55:43.735Z,2.47
2019-02-03T03:58:14.297Z,2.44
2019-02-03T04:00:44.875Z,2.45
2019-02-03T04:03:15.365Z,2.44
2019-02-03T04:05:45.952Z,2.39
2019-02-03T04:08:16.478Z,2.41
2019-02-03T04:10:47.063Z,2.39
2019-02-03T04:13:17.608Z,2.38
2019-02-03T04:15:48.363Z,2.35
2019-02-03T04:18:18.939Z,2.37
2019-02-03T04:20:49.448Z,2.38
2019-02-03T04:23:20.016Z,2.37
2019-02-03T04:25:53.598Z,2.30
2019-02-03T04:28:24.253Z,2.33
2019-02-03T04:30:54.797Z,2.29
2019-02-03T04:33:25.347Z,2.24
2019-02-03T04:35:56.281Z,2.30
2019-02-03T04:38:26.803Z,2.27
2019-02-03T04:40:57.409Z,2.29
2019-02-03T04:43:27.963Z,2.27
2019-02-03T04:45:58.515Z,2.27
2019-02-03T04:48:29.480Z,2.25
2019-02-03T04:50:59.988Z,2.24
2019-02-03T04:53:30.551Z,2.28
2019-02-03T04:56:01.144Z,2.25
2019-02-03T04:58:31.658Z,2.26
2019-02-03T05:01:02.244Z,2.25
2019-02-03T05:03:32.785Z,2.20
2019-02-03T05:06:03.338Z,2.20
2019-02-03T05:08:33.948Z,2.16
2019-02-03T05:11:04.523Z,2.15
2019-02-03T05:13:35.160Z,2.17
2019-02-03T05:16:05.705Z,2.16
2019-02-03T05:18:36.305Z,2.16
2019-02-03T05:21:06.834Z,2.18
2019-02-03T05:23:37.439Z,2.23
2019-02-03T05:26:08.016Z,2.24
2019-02-03T05:28:38.587Z,2.28
2019-02-03T05:31:09.183Z,2.22
2019-02-03T05:33:39.740Z,2.24
2019-02-03T05:36:10.340Z,2.26
2019-02-03T05:38:40.907Z,2.23
2019-02-03T05:41:11.457Z,2.26
2019-02-03T05:43:41.979Z,2.25
2019-02-03T05:46:12.545Z,2.24
2019-02-03T05:48:43.088Z,2.25
2019-02-03T05:51:13.742Z,2.25
2019-02-03T05:53:44.292Z,2.28
2019-02-03T05:56:14.804Z,2.29
2019-02-03T05:58:45.391Z,2.28
2019-02-03T06:01:15.988Z,2.24
2019-02-03T06:03:46.561Z,2.28
2019-02-03T06:06:17.098Z,2.25
2019-02-03T06:08:47.631Z,2.22
2019-02-03T06:11:21.173Z,2.25
2019-02-03T06:13:51.761Z,2.28
2019-02-03T06:16:22.323Z,2.26
2019-02-03T06:18:52.937Z,2.26
2019-02-03T06:21:23.547Z,2.27
2019-02-03T06:23:54.080Z,2.31
2019-02-03T06:26:24.635Z,2.26
2019-02-03T06:28:55.225Z,2.29
2019-02-03T06:31:25.734Z,2.28
2019-02-03T06:33:56.680Z,2.28
2019-02-03T06:36:27.303Z,2.29
2019-02-03T06:38:57.902Z,2.25
2019-02-03T06:41:28.539Z,2.25
2019-02-03T06:43:59.056Z,2.32
2019-02-03T06:46:46.962Z,2.33
2019-02-03T06:49:30.418Z,2.31
2019-02-03T06:52:00.956Z,2.35
2019-02-03T06:54:31.527Z,2.33
2019-02-03T06:57:07.097Z,2.39
2019-02-03T06:59:50.578Z,2.39
2019-02-03T07:02:15.794Z,2.35
2019-02-03T07:04:47.032Z,2.36
2019-02-03T07:07:18.243Z,2.35
2019-02-03T07:09:59.697Z,2.37
2019-02-03T07:12:21.907Z,2.39
2019-02-03T07:14:53.411Z,2.34
2019-02-03T07:17:24.616Z,2.32
2019-02-03T07:19:55.605Z,2.32
2019-02-03T07:22:26.209Z,2.33
2019-02-03T07:24:57.118Z,2.38
2019-02-03T07:27:27.670Z,2.37
2019-02-03T07:29:58.255Z,2.39
2019-02-03T07:32:28.856Z,2.33
2019-02-03T07:34:59.412Z,2.39
2019-02-03T07:37:30.447Z,2.37
2019-02-03T07:40:11.771Z,2.37
2019-02-03T07:42:33.273Z,2.38
2019-02-03T07:45:03.904Z,2.41
2019-02-03T07:47:34.435Z,2.43
2019-02-03T07:50:05.815Z,2.42
2019-02-03T07:52:36.329Z,2.46
2019-02-03T07:55:07.558Z,2.45
2019-02-03T07:57:38.063Z,2.48
2019-02-03T08:00:08.862Z,2.47
2019-02-03T08:02:39.788Z,2.48
2019-02-03T08:05:10.630Z,2.49
2019-02-03T08:07:41.177Z,2.46
2019-02-03T08:10:23.872Z,2.48
2019-02-03T08:13:01.840Z,2.49
2019-02-03T08:15:32.372Z,2.49
2019-02-03T08:18:02.876Z,2.50
2019-02-03T08:20:33.483Z,2.50
2019-02-03T08:23:03.968Z,2.54
2019-02-03T08:25:34.595Z,2.54
2019-02-03T08:28:05.821Z,2.48
2019-02-03T08:30:36.471Z,2.47
2019-02-03T08:33:07.022Z,2.44
2019-02-03T08:35:37.785Z,2.46
2019-02-03T08:38:08.586Z,2.43
2019-02-03T08:40:39.136Z,2.44
2019-02-03T08:43:09.695Z,2.46
2019-02-03T08:45:40.360Z,2.52
2019-02-03T08:48:11.055Z,2.51
2019-02-03T08:50:43.760Z,2.52
2019-02-03T08:53:15.004Z,2.59
2019-02-03T08:55:46.920Z,2.56
2019-02-03T08:58:21.303Z,2.57
2019-02-03T09:00:52.171Z,2.60
2019-02-03T09:03:27.299Z,2.65
2019-02-03T09:05:58.075Z,2.65
2019-02-03T09:08:28.635Z,2.63
2019-02-03T09:10:59.220Z,2.63
2019-02-03T09:13:30.016Z,2.68
2019-02-03T09:16:00.533Z,2.67
2019-02-03T09:18:31.136Z,2.72
2019-02-03T09:21:01.662Z,2.71
2019-02-03T09:23:32.236Z,2.74
2019-02-03T09:26:02.918Z,2.79
2019-02-03T09:28:33.442Z,2.79
2019-02-03T09:31:04.085Z,2.83
2019-02-03T09:33:34.609Z,2.83
2019-02-03T09:36:05.729Z,2.85
2019-02-03T09:38:36.328Z,2.85
2019-02-03T09:41:07.097Z,2.90
2019-02-03T09:43:37.675Z,2.93
2019-02-03T09:46:08.372Z,2.94
2019-02-03T09:48:38.888Z,2.92
2019-02-03T09:51:09.473Z,2.92
2019-02-03T09:53:42.313Z,2.92
2019-02-03T09:56:12.804Z,2.94
2019-02-03T09:58:43.382Z,2.93
2019-02-03T10:01:13.977Z,2.93
2019-02-03T10:03:44.518Z,2.93
2019-02-03T10:06:15.065Z,2.88
2019-02-03T10:08:45.574Z,2.88
2019-02-03T10:11:16.161Z,2.91
2019-02-03T10:13:46.723Z,2.87
2019-02-03T10:16:17.286Z,2.91
2019-02-03T10:18:47.818Z,2.93
2019-02-03T10:21:18.331Z,2.94
2019-02-03T10:23:48.906Z,2.96
2019-02-03T10:26:19.489Z,2.95
2019-02-03T10:28:50.072Z,2.94
2019-02-03T10:31:20.637Z,2.92
2019-02-03T10:33:51.306Z,2.94
2019-02-03T10:36:21.968Z,2.86
2019-02-03T10:38:53.349Z,2.89
2019-02-03T10:41:24.582Z,2.87
2019-02-03T10:43:56.427Z,2.84
2019-02-03T10:46:27.202Z,2.83
2019-02-03T10:48:57.773Z,2.84
2019-02-03T10:51:28.350Z,2.77
2019-02-03T10:53:58.936Z,2.82
2019-02-03T10:56:29.787Z,2.80
2019-02-03T10:59:00.359Z,2.81
2019-02-03T11:01:30.916Z,2.85
2019-02-03T11:04:01.612Z,2.89
2019-02-03T11:06:32.133Z,2.94
2019-02-03T11:09:04.315Z,2.97
2019-02-03T11:11:36.576Z,3.00
2019-02-03T11:14:07.881Z,3.08
2019-02-03T11:16:38.486Z,3.16
2019-02-03T11:19:09.160Z,3.23
2019-02-03T11:21:39.775Z,3.27
2019-02-03T11:24:10.388Z,3.28
2019-02-03T11:26:41.101Z,3.31
2019-02-03T11:29:11.755Z,3.39
2019-02-03T11:31:42.272Z,3.41
2019-02-03T11:34:12.890Z,3.34
2019-02-03T11:36:43.710Z,3.32
2019-02-03T11:39:14.291Z,3.25
2019-02-03T11:41:49.270Z,3.17
2019-02-03T11:44:17.327Z,3.16
2019-02-03T11:46:50.597Z,3.23
2019-02-03T11:49:21.346Z,3.26
2019-02-03T11:51:51.904Z,3.34
2019-02-03T11:54:22.668Z,3.31
2019-02-03T11:56:53.178Z,3.39
2019-02-03T11:59:25.514Z,3.47
2019-02-03T12:01:56.373Z,3.40
2019-02-03T12:04:26.938Z,3.43
2019-02-03T12:06:57.439Z,3.44
2019-02-03T12:09:28.022Z,3.40
2019-02-03T12:12:01.796Z,3.46
2019-02-03T12:14:30.831Z,3.42
2019-02-03T12:17:01.390Z,3.42
2019-02-03T12:19:31.918Z,3.48
2019-02-03T12:22:02.428Z,3.50
2019-02-03T12:24:32.991Z,3.50
2019-02-03T12:27:03.599Z,3.46
2019-02-03T12:29:34.136Z,3.47
2019-02-03T12:32:04.858Z,3.44
2019-02-03T12:34:35.422Z,3.44
2019-02-03T12:37:05.966Z,3.52
2019-02-03T12:39:37.575Z,3.52
2019-02-03T12:42:13.213Z,3.55
2019-02-03T12:44:40.419Z,3.60
2019-02-03T12:47:10.988Z,3.62
2019-02-03T12:49:41.508Z,3.64
2019-02-03T12:52:12.124Z,3.61
2019-02-03T12:54:42.691Z,3.58
2019-02-03T12:57:13.261Z,3.52
2019-02-03T12:59:43.862Z,3.51
2019-02-03T13:02:14.376Z,3.48
2019-02-03T13:04:44.969Z,3.43
2019-02-03T13:07:15.497Z,3.41
2019-02-03T13:09:46.043Z,3.40
2019-02-03T13:12:24.658Z,3.43
2019-02-03T13:14:48.864Z,3.37
2019-02-03T13:17:19.365Z,3.37
2019-02-03T13:19:49.908Z,3.37
2019-02-03T13:22:20.549Z,3.33
2019-02-03T13:24:51.125Z,3.32
2019-02-03T13:27:21.610Z,3.33
2019-02-03T13:29:52.232Z,3.41
2019-02-03T13:32:24.651Z,3.51
2019-02-03T13:34:55.281Z,3.55
2019-02-03T13:37:29.327Z,3.65
2019-02-03T13:40:00.047Z,3.70
2019-02-03T13:42:37.337Z,3.77
2019-02-03T13:45:02.883Z,3.83
2019-02-03T13:47:33.477Z,3.87
2019-02-03T13:50:04.535Z,3.94
2019-02-03T13:52:35.118Z,4.01
2019-02-03T13:55:06.316Z,3.98
2019-02-03T13:57:36.849Z,4.00
2019-02-03T14:00:14.319Z,3.95
2019-02-03T14:02:44.569Z,3.93
2019-02-03T14:05:15.317Z,3.89
2019-02-03T14:07:45.913Z,3.88
2019-02-03T14:10:21.114Z,3.82
2019-02-03T14:12:54.935Z,3.83
2019-02-03T14:15:24.283Z,3.79
2019-02-03T14:17:54.969Z,3.77
2019-02-03T14:20:28.252Z,3.75
2019-02-03T14:22:59.635Z,3.74
2019-02-03T14:25:30.812Z,3.77
2019-02-03T14:28:01.386Z,3.74
2019-02-03T14:30:40.301Z,3.69
2019-02-03T14:33:07.944Z,3.68
2019-02-03T14:35:38.624Z,3.73
2019-02-03T14:38:10.051Z,3.72
2019-02-03T14:40:40.616Z,3.66
2019-02-03T14:43:11.560Z,3.58
2019-02-03T14:45:42.395Z,3.57
2019-02-03T14:48:12.974Z,3.52
2019-02-03T14:50:43.519Z,3.59
2019-02-03T14:53:16.567Z,3.63
2019-02-03T14:55:51.766Z,3.64
2019-02-03T14:58:21.602Z,3.61
2019-02-03T15:00:55.413Z,3.66
2019-02-03T15:03:27.419Z,3.66
2019-02-03T15:05:57.971Z,3.65
2019-02-03T15:08:28.452Z,3.65
2019-02-03T15:10:59.025Z,3.67
2019-02-03T15:13:29.804Z,3.68
2019-02-03T15:16:00.340Z,3.64
2019-02-03T15:18:32.592Z,3.61
2019-02-03T15:21:03.180Z,3.63
2019-02-03T15:23:33.785Z,3.62
2019-02-03T15:26:04.468Z,3.65
2019-02-03T15:28:35.029Z,3.63
2019-02-03T15:31:05.675Z,3.65
2019-02-03T15:33:36.197Z,3.59
2019-02-03T15:36:06.784Z,3.57
2019-02-03T15:38:37.333Z,3.59
2019-02-03T15:41:07.857Z,3.57
2019-02-03T15:43:38.439Z,3.55
2019-02-03T15:46:08.987Z,3.56
2019-02-03T15:48:41.906Z,3.53
2019-02-03T15:51:12.422Z,3.52
2019-02-03T15:53:45.082Z,3.50
2019-02-03T15:56:15.644Z,3.51
2019-02-03T15:58:46.186Z,3.48
2019-02-03T16:01:16.897Z,3.49
2019-02-03T16:03:47.457Z,3.47
2019-02-03T16:06:18.057Z,3.46
2019-02-03T16:08:48.633Z,3.45
2019-02-03T16:11:19.182Z,3.44
2019-02-03T16:13:50.086Z,3.43
2019-02-03T16:16:20.611Z,3.39
2019-02-03T16:18:51.226Z,3.37
2019-02-03T16:21:21.834Z,3.35
2019-02-03T16:23:52.403Z,3.33
2019-02-03T16:26:25.971Z,3.33
2019-02-03T16:28:56.466Z,3.27
2019-02-03T16:31:27.043Z,3.28
2019-02-03T16:33:57.618Z,3.20
2019-02-03T16:36:28.490Z,3.25
2019-02-03T16:39:01.922Z,3.22
2019-02-03T16:41:32.475Z,3.25
2019-02-03T16:44:03.034Z,3.24
2019-02-03T16:46:35.238Z,3.19
2019-02-03T16:49:06.104Z,3.21
2019-02-03T16:51:36.632Z,3.24
2019-02-03T16:54:07.394Z,3.23
2019-02-03T16:56:37.992Z,3.18
2019-02-03T16:59:08.580Z,3.21
2019-02-03T17:01:39.143Z,3.20
2019-02-03T17:04:09.702Z,3.19
2019-02-03T17:06:40.351Z,3.18
2019-02-03T17:09:12.088Z,3.19
2019-02-03T17:11:42.659Z,3.17
2019-02-03T17:14:13.286Z,3.18
2019-02-03T17:16:43.849Z,3.17
2019-02-03T17:19:14.505Z,3.14
2019-02-03T17:21:45.084Z,3.11
2019-02-03T17:24:15.726Z,3.12
2019-02-03T17:26:46.323Z,3.12
2019-02-03T17:29:16.813Z,3.10
2019-02-03T17:31:47.390Z,3.13
2019-02-03T17:34:17.995Z,3.13
2019-02-03T17:36:51.250Z,3.12
2019-02-03T17:39:21.803Z,3.11
2019-02-03T17:41:52.328Z,3.09
2019-02-03T17:44:22.872Z,3.08
2019-02-03T17:46:53.415Z,3.04
2019-02-03T17:49:23.950Z,3.00
2019-02-03T17:51:54.602Z,3.01
2019-02-03T17:54:25.117Z,3.00
2019-02-03T17:56:55.825Z,3.01
2019-02-03T17:59:26.378Z,2.99
2019-02-03T18:01:56.936Z,3.00
2019-02-03T18:04:27.471Z,3.01
2019-02-03T18:06:58.034Z,3.00
2019-02-03T18:09:28.758Z,2.98
2019-02-03T18:11:59.422Z,2.98
2019-02-03T18:14:30.088Z,2.97
2019-02-03T18:17:00.601Z,2.98
2019-02-03T18:19:31.205Z,2.97
2019-02-03T18:22:02.065Z,2.97
2019-02-03T18:24:32.679Z,2.96
2019-02-03T18:27:03.260Z,2.94
2019-02-03T18:29:33.827Z,2.92
2019-02-03T18:32:04.372Z,2.88
2019-02-03T18:34:35.300Z,2.86
2019-02-03T18:37:05.818Z,2.85
2019-02-03T18:39:36.450Z,2.84
2019-02-03T18:42:07.413Z,2.82
2019-02-03T18:44:38.045Z,2.81
2019-02-03T18:47:08.887Z,2.81
2019-02-03T18:49:39.485Z,2.80
2019-02-03T18:52:10.035Z,2.79
2019-02-03T18:54:40.680Z,2.77
2019-02-03T18:57:11.241Z,2.74
2019-02-03T18:59:42.135Z,2.75
2019-02-03T19:02:12.699Z,2.76
2019-02-03T19:04:43.269Z,2.78
2019-02-03T19:07:13.808Z,2.76
2019-02-03T19:09:47.458Z,2.75
2019-02-03T19:12:18.407Z,2.74
2019-02-03T19:14:48.940Z,2.69
2019-02-03T19:17:19.523Z,2.65
2019-02-03T19:19:50.051Z,2.68
2019-02-03T19:22:20.600Z,2.70
2019-02-03T19:24:51.594Z,2.69
2019-02-03T19:27:23.313Z,2.70
2019-02-03T19:29:53.886Z,2.70
2019-02-03T19:32:24.441Z,2.69
2019-02-03T19:34:54.999Z,2.68
2019-02-03T19:37:25.840Z,2.66
2019-02-03T19:39:56.440Z,2.69
2019-02-03T19:42:26.956Z,2.65
2019-02-03T19:44:58.696Z,2.63
2019-02-03T19:47:29.367Z,2.67
2019-02-03T19:50:00.342Z,2.69
2019-02-03T19:52:30.919Z,2.64
2019-02-03T19:55:01.560Z,2.67
2019-02-03T19:57:32.137Z,2.70
2019-02-03T20:00:02.833Z,2.71
2019-02-03T20:02:33.778Z,2.67
2019-02-03T20:05:04.630Z,2.64
2019-02-03T20:07:35.149Z,2.62
2019-02-03T20:10:08.914Z,2.61
2019-02-03T20:12:39.456Z,2.61
2019-02-03T20:15:11.454Z,2.60
2019-02-03T20:17:41.978Z,2.63
2019-02-03T20:20:16.983Z,2.59
2019-02-03T20:22:47.529Z,2.52
2019-02-03T20:25:18.788Z,2.46
2019-02-03T20:27:49.630Z,2.39
2019-02-03T20:30:37.294Z,2.36
2019-02-03T20:32:56.851Z,2.26
2019-02-03T20:35:28.443Z,2.24
2019-02-03T20:37:59.567Z,2.22
2019-02-03T20:40:42.175Z,2.21
2019-02-03T20:43:12.666Z,2.16
2019-02-03T20:45:49.387Z,2.13
2019-02-03T20:48:18.371Z,2.08
2019-02-03T20:50:48.880Z,1.98
2019-02-03T20:53:19.443Z,1.93
2019-02-03T20:55:49.960Z,1.90
2019-02-03T20:58:20.566Z,1.82
2019-02-03T21:00:51.145Z,1.63
2019-02-03T21:03:21.674Z,1.64
2019-02-03T21:05:52.264Z,1.62
2019-02-03T21:08:22.829Z,1.61
2019-02-03T21:10:55.603Z,1.59
2019-02-03T21:13:26.196Z,1.57
2019-02-03T21:15:56.720Z,1.51
2019-02-03T21:18:34.577Z,1.51
2019-02-03T21:21:05.181Z,1.47
2019-02-03T21:23:38.528Z,1.39
2019-02-03T21:26:15.822Z,1.34
2019-02-03T21:28:42.755Z,1.33
2019-02-03T21:31:13.466Z,1.32
2019-02-03T21:33:44.054Z,1.34
2019-02-03T21:36:16.372Z,1.34
2019-02-03T21:38:47.233Z,1.33
2019-02-03T21:41:17.860Z,1.29
2019-02-03T21:43:48.419Z,1.26
2019-02-03T21:46:19.090Z,1.22
2019-02-03T21:48:52.684Z,1.22
2019-02-03T21:51:24.263Z,1.17
2019-02-03T21:53:54.863Z,1.14
2019-02-03T21:56:25.417Z,1.13
2019-02-03T21:58:56.230Z,1.10
2019-02-03T22:01:27.033Z,1.06
2019-02-03T22:03:57.746Z,1.00
2019-02-03T22:06:31.485Z,0.99
2019-02-03T22:09:02.351Z,1.00
2019-02-03T22:11:32.916Z,1.01
2019-02-03T22:14:03.595Z,0.96
2019-02-03T22:16:34.231Z,0.93
2019-02-03T22:19:05.027Z,0.90
2019-02-03T22:21:35.628Z,0.85
2019-02-03T22:24:06.463Z,0.86
2019-02-03T22:26:37.200Z,0.86
2019-02-03T22:29:09.350Z,0.86
2019-02-03T22:31:40.147Z,0.83
2019-02-03T22:34:10.913Z,0.82
2019-02-03T22:36:42.095Z,0.79
2019-02-03T22:39:13.070Z,0.70
2019-02-03T22:41:46.817Z,0.66
2019-02-03T22:44:16.309Z,0.68
2019-02-03T22:46:50.136Z,0.69
2019-02-03T22:49:20.886Z,0.64
2019-02-03T22:51:51.877Z,0.63
2019-02-03T22:54:23.863Z,0.62
2019-02-03T22:56:54.447Z,0.62
2019-02-03T22:59:25.395Z,0.56
2019-02-03T23:01:57.055Z,0.54
2019-02-03T23:04:32.526Z,0.52
2019-02-03T23:07:03.246Z,0.52
2019-02-03T23:09:34.184Z,0.47
2019-02-03T23:12:07.700Z,0.40
2019-02-03T23:14:39.408Z,0.34
2019-02-03T23:17:10.160Z,0.35
2019-02-03T23:19:40.804Z,0.35
2019-02-03T23:22:11.498Z,0.37
2019-02-03T23:24:45.097Z,0.35
2019-02-03T23:27:15.979Z,0.33
2019-02-03T23:29:46.566Z,0.32
2019-02-03T23:32:17.116Z,0.31
2019-02-03T23:34:47.670Z,0.28
2019-02-03T23:37:18.285Z,0.23
2019-02-03T23:39:48.933Z,0.23
2019-02-03T23:42:19.498Z,0.20
2019-02-03T23:44:50.054Z,0.19
2019-02-03T23:47:20.627Z,0.15
2019-02-03T23:49:51.179Z,0.16
2019-02-03T23:52:21.782Z,0.16
2019-02-03T23:54:52.319Z,0.14
2019-02-03T23:57:22.821Z,0.07
2019-02-03T23:59:53.427Z,0.05
